Flight Track Log - Related Links

Times and Time Zones

All times are in EDT time to prevent confusion due to time zone crossing. See the N516QS flight status page for this flight to view local times or setup timezone preferences in your user account.

Time Position Orientation Groundspeed Altitude Reporting Facility
EDT Latitude Longitude Course Direction KTS MPH feet Rate Location/Type
Wed 12:40:00 PM 44.8876 20.1684 305° West  Level Estimated
Wed 12:41:00 PM 44.9565 20.0274 305° West  Level Estimated
Wed 12:42:00 PM 45.0253 19.8860 305° West  Level Estimated
Wed 12:43:00 PM 45.0938 19.7442 304° West  Level Estimated
Wed 12:44:00 PM 45.1623 19.6021 304° West  Level Estimated
Wed 12:45:00 PM 45.2305 19.4597 304° West  Level Estimated
Wed 12:46:00 PM 45.2986 19.3170 304° West  Level Estimated
Wed 12:47:00 PM 45.3664 19.1738 304° West  Level Estimated
Wed 12:48:00 PM 45.4341 19.0304 304° West  Level Estimated
Wed 12:49:00 PM 45.5017 18.8866 304° West  Level Estimated
Wed 12:50:00 PM 45.5690 18.7425 304° West  Level Estimated
Wed 12:51:00 PM 45.6362 18.5980 304° West  Level Estimated
Wed 12:52:00 PM 45.7031 18.4532 304° West  Level Estimated
Wed 12:53:00 PM 45.7699 18.3080 303° West  Level Estimated
Wed 12:54:00 PM 45.8365 18.1625 303° West  Level Estimated
Wed 12:55:00 PM 45.9030 18.0166 303° West  Level Estimated
Wed 12:56:00 PM 45.9692 17.8704 303° West  Level Estimated
Wed 12:57:00 PM 46.0353 17.7238 303° West  Level Estimated
Wed 12:58:00 PM 46.1011 17.5769 303° West  Level Estimated
Wed 12:59:00 PM 46.1668 17.4296 303° West  Level Estimated
Wed 01:00:00 PM 46.2323 17.2820 303° West  Level Estimated
Wed 01:01:00 PM 46.2976 17.1340 303° West  Level Estimated
Wed 01:02:00 PM 46.3627 16.9857 302° West  Level Estimated
Wed 01:03:00 PM 46.4276 16.8370 302° West  Level Estimated
Wed 01:04:00 PM 46.4923 16.6880 302° West  Level Estimated
Wed 01:05:00 PM 46.5568 16.5386 302° West  Level Estimated
Wed 01:06:00 PM 46.6212 16.3888 302° West  Level Estimated
Wed 01:07:00 PM 46.6853 16.2387 302° West  Level Estimated
Wed 01:08:00 PM 46.7492 16.0883 302° West  Level Estimated
Wed 01:09:00 PM 46.8130 15.9374 302° West  Level Estimated
Wed 01:10:00 PM 46.8765 15.7863 302° West  Level Estimated
Wed 01:11:00 PM 46.9398 15.6347 302° West  Level Estimated
Wed 01:12:00 PM 47.0030 15.4829 301° West  Level Estimated
Wed 01:13:00 PM 47.0659 15.3306 301° West  Level Estimated
Wed 01:14:00 PM 47.1287 15.1780 301° West  Level Estimated
Wed 01:15:00 PM 47.1912 15.0250 301° West  Level Estimated
Wed 01:16:00 PM 47.2535 14.8717 301° West  Level Estimated
Wed 01:17:00 PM 47.3157 14.7180 301° West  Level Estimated
Wed 01:18:00 PM 47.3776 14.5639 301° West  Level Estimated
Wed 01:19:00 PM 47.4393 14.4095 301° West  Level Estimated
Wed 01:20:00 PM 47.5008 14.2548 301° West  Level Estimated
Wed 01:21:00 PM 47.5621 14.0996 300° West  Level Estimated
Wed 01:22:00 PM 47.6232 13.9441 300° West  Level Estimated
Wed 01:23:00 PM 47.6841 13.7883 300° West  Level Estimated
Wed 01:24:00 PM 47.7447 13.6320 300° West  Level Estimated
Wed 01:25:00 PM 47.8052 13.4754 300° West  Level Estimated
Wed 01:26:00 PM 47.8654 13.3185 300° West  Level Estimated
Wed 01:27:00 PM 47.9254 13.1612 300° West  Level Estimated
Wed 01:28:00 PM 47.9852 13.0035 300° West  Level Estimated
Wed 01:29:00 PM 48.0448 12.8455 299° West  Level Estimated
Wed 01:30:00 PM 48.1042 12.6870 299° West  Level Estimated
Wed 01:31:00 PM 48.1634 12.5283 299° West  Level Estimated
Wed 01:32:00 PM 48.2223 12.3691 299° West  Level Estimated
Wed 01:33:00 PM 48.2810 12.2096 299° West  Level Estimated
Wed 01:34:00 PM 48.3395 12.0497 299° West  Level Estimated
Wed 01:35:00 PM 48.3978 11.8895 299° West  Level Estimated
Wed 01:36:00 PM 48.4558 11.7289 299° West  Level Estimated
Wed 01:37:00 PM 48.5137 11.5679 299° West  Level Estimated
Wed 01:38:00 PM 48.5713 11.4065 298° West  Level Estimated
Wed 01:39:00 PM 48.6287 11.2448 298° West  Level Estimated
Wed 01:40:00 PM 48.6858 11.0828 298° West  Level Estimated
Wed 01:41:00 PM 48.7427 10.9203 298° West  Level Estimated
Wed 01:42:00 PM 48.7994 10.7575 298° West  Level Estimated
Wed 01:43:00 PM 48.8559 10.5943 298° West  Level Estimated
Wed 01:44:00 PM 48.9121 10.4307 298° West  Level Estimated
Wed 01:45:00 PM 48.9681 10.2668 298° West  Level Estimated
Wed 01:46:00 PM 49.0239 10.1025 297° West  Level Estimated
Wed 01:47:00 PM 49.0794 9.9379 297° West  Level Estimated
Wed 01:48:00 PM 49.1347 9.7729 297° West  Level Estimated
Wed 01:49:00 PM 49.1898 9.6075 297° West  Level Estimated
Wed 01:50:00 PM 49.2446 9.4417 297° West  Level Estimated
Wed 01:51:00 PM 49.2992 9.2756 297° West  Level Estimated
Wed 01:52:00 PM 49.3535 9.1091 297° West  Level Estimated
Wed 01:53:00 PM 49.4076 8.9422 297° West  Level Estimated
Wed 01:54:00 PM 49.4615 8.7750 296° West  Level Estimated
Wed 01:55:00 PM 49.5151 8.6074 296° West  Level Estimated
Wed 01:56:00 PM 49.5685 8.4395 296° West  Level Estimated
Wed 01:57:00 PM 49.6217 8.2711 296° West  Level Estimated
Wed 01:58:00 PM 49.6746 8.1024 296° West  Level Estimated
Wed 01:59:00 PM 49.7272 7.9334 296° West  Level Estimated
Wed 02:00:00 PM 49.7796 7.7639 296° West  Level Estimated
Wed 02:01:00 PM 49.8318 7.5941 296° West  Level Estimated
Wed 02:02:00 PM 49.8837 7.4240 295° West  Level Estimated
Wed 02:03:00 PM 49.9354 7.2534 295° West  Level Estimated
Wed 02:04:00 PM 49.9868 7.0826 295° West  Level Estimated
Wed 02:05:00 PM 50.0379 6.9113 295° West  Level Estimated
Wed 02:06:00 PM 50.0888 6.7397 295° West  Level Estimated
Wed 02:07:00 PM 50.1395 6.5677 295° West  Level Estimated
Wed 02:08:00 PM 50.1899 6.3953 295° West  Level Estimated
Wed 02:09:00 PM 50.2400 6.2226 294° West  Level Estimated
Wed 02:10:00 PM 50.2899 6.0496 294° West  Level Estimated
Wed 02:11:00 PM 50.3396 5.8761 294° West  Level Estimated
Wed 02:12:00 PM 50.3889 5.7023 294° West  Level Estimated
Wed 02:13:00 PM 50.4380 5.5282 294° West  Level Estimated
Wed 02:14:00 PM 50.4869 5.3536 294° West  Level Estimated
Wed 02:15:00 PM 50.5355 5.1788 294° West  Level Estimated
Wed 02:16:00 PM 50.5838 5.0035 294° West  Level Estimated
Wed 02:17:00 PM 50.6319 4.8279 293° West  Level Estimated
Wed 02:18:00 PM 50.6797 4.6520 293° West  Level Estimated
Wed 02:19:00 PM 50.7272 4.4756 293° West  Level Estimated
Wed 02:20:00 PM 50.7745 4.2990 293° West  Level Estimated
Wed 02:21:00 PM 50.8215 4.1219 293° West  Level Estimated
Wed 02:22:00 PM 50.8682 3.9446 293° West  Level Estimated
Wed 02:23:00 PM 50.9146 3.7668 293° West  Level Estimated
Wed 02:24:00 PM 50.9608 3.5887 292° West  Level Estimated
Wed 02:25:00 PM 51.0068 3.4103 292° West  Level Estimated
Wed 02:26:00 PM 51.0524 3.2315 292° West  Level Estimated
Wed 02:27:00 PM 51.0978 3.0523 292° West  Level Estimated
Wed 02:28:00 PM 51.1429 2.8728 292° West  Level Estimated
Wed 02:29:00 PM 51.1877 2.6930 292° West  Level Estimated
Wed 02:30:00 PM 51.2323 2.5128 292° West  Level Estimated
Wed 02:31:00 PM 51.2765 2.3322 291° West  Level Estimated
Wed 02:32:00 PM 51.3205 2.1513 291° West  Level Estimated
Wed 02:33:00 PM 51.3642 1.9701 291° West  Level Estimated
Wed 02:34:00 PM 51.4076 1.7885 291° West  Level Estimated
Wed 02:35:00 PM 51.4508 1.6066 291° West  Level Estimated
Wed 02:36:00 PM 51.4937 1.4243 291° West  Level Estimated
Wed 02:37:00 PM 51.5363 1.2417 291° West  Level Estimated
Wed 02:38:00 PM 51.5786 1.0587 290° West  Level Estimated
Wed 02:39:00 PM 51.6206 0.8754 290° West  Level Estimated
Wed 02:40:00 PM 51.6623 0.6918 290° West  Level Estimated
Wed 02:41:00 PM 51.7038 0.5078 290° West  Level Estimated
Wed 02:42:00 PM 51.7449 0.3235 290° West  Level Estimated
Wed 02:43:00 PM 51.7858 0.1388 290° West  Level Estimated
Wed 02:44:00 PM 51.8264 -0.0461 290° West  Level Estimated
Wed 02:45:00 PM 51.8666 -0.2315 289° West  Level Estimated
Wed 02:46:00 PM 51.9067 -0.4171 289° West  Level Estimated
Wed 02:47:00 PM 51.9464 -0.6031 289° West  Level Estimated
Wed 02:48:00 PM 51.9858 -0.7894 289° West  Level Estimated
Wed 02:49:00 PM 52.0249 -0.9760 289° West  Level Estimated
Wed 02:50:00 PM 52.0637 -1.1630 289° West  Level Estimated
Wed 02:51:00 PM 52.1022 -1.3502 289° West  Level Estimated
Wed 02:52:00 PM 52.1404 -1.5378 288° West  Level Estimated
Wed 02:53:00 PM 52.1784 -1.7257 288° West  Level Estimated
Wed 02:54:00 PM 52.2160 -1.9140 288° West  Level Estimated
Wed 02:55:00 PM 52.2533 -2.1026 288° West  Level Estimated
Wed 02:56:00 PM 52.2904 -2.2914 288° West  Level Estimated
Wed 02:57:00 PM 52.3271 -2.4806 288° West  Level Estimated
Wed 02:58:00 PM 52.3635 -2.6701 288° West  Level Estimated
Wed 02:59:00 PM 52.3996 -2.8599 287° West  Level Estimated
Wed 03:00:00 PM 52.4355 -3.0501 287° West  Level Estimated
Wed 03:01:00 PM 52.4710 -3.2405 287° West  Level Estimated
Wed 03:02:00 PM 52.5062 -3.4312 287° West  Level Estimated
Wed 03:03:00 PM 52.5411 -3.6223 287° West  Level Estimated
Wed 03:04:00 PM 52.5756 -3.8136 287° West  Level Estimated
Wed 03:05:00 PM 52.6099 -4.0053 286° West  Level Estimated
Wed 03:06:00 PM 52.6439 -4.1972 286° West  Level Estimated
Wed 03:07:00 PM 52.6776 -4.3895 286° West  Level Estimated
Wed 03:08:00 PM 52.7109 -4.5820 286° West  Level Estimated
Wed 03:09:00 PM 52.7439 -4.7748 286° West  Level Estimated
Wed 03:10:00 PM 52.7767 -4.9679 286° West  Level Estimated
Wed 03:11:00 PM 52.8091 -5.1613 286° West  Level Estimated
Wed 03:12:00 PM 52.8412 -5.3551 285° West  Level Estimated
Wed 03:13:00 PM 52.8730 -5.5490 285° West  Level Estimated
Wed 03:14:00 PM 52.9044 -5.7433 285° West  Level Estimated
Wed 03:15:00 PM 52.9356 -5.9378 285° West  Level Estimated
Wed 03:16:00 PM 52.9664 -6.1327 285° West  Level Estimated
Wed 03:17:00 PM 52.9969 -6.3278 285° West  Level Estimated
Wed 03:18:00 PM 53.0271 -6.5232 284° West  Level Estimated
Wed 03:19:00 PM 53.0569 -6.7188 284° West  Level Estimated
Wed 03:20:00 PM 53.0865 -6.9147 284° West  Level Estimated
Wed 03:21:00 PM 53.1157 -7.1109 284° West  Level Estimated
Wed 03:22:00 PM 53.1446 -7.3074 284° West  Level Estimated
Wed 03:23:00 PM 53.1732 -7.5041 284° West  Level Estimated
Wed 03:24:00 PM 53.2014 -7.7011 284° West  Level Estimated
Wed 03:25:00 PM 53.2294 -7.8983 283° West  Level Estimated
Wed 03:26:00 PM 53.2570 -8.0958 283° West  Level Estimated
Wed 03:27:00 PM 53.2842 -8.2935 283° West  Level Estimated
Wed 03:28:00 PM 53.3112 -8.4915 283° West  Level Estimated
Wed 03:29:00 PM 53.3378 -8.6898 283° West  Level Estimated
Wed 03:30:00 PM 53.3641 -8.8883 283° West  Level Estimated
Wed 03:31:00 PM 53.3901 -9.0870 282° West  Level Estimated
Wed 03:32:00 PM 53.4157 -9.2859 282° West  Level Estimated
Wed 03:33:00 PM 53.4410 -9.4852 282° West  Level Estimated
Wed 03:34:00 PM 53.4660 -9.6846 282° West  Level Estimated
Wed 03:35:00 PM 53.4906 -9.8843 282° West  Level Estimated
Wed 03:36:00 PM 53.5149 -10.0842 282° West  Level Estimated
Wed 03:37:00 PM 53.5389 -10.2843 281° West  Level Estimated
Wed 03:38:00 PM 53.5625 -10.4847 281° West  Level Estimated
Wed 03:39:00 PM 53.5858 -10.6853 281° West  Level Estimated
Wed 03:40:00 PM 53.6087 -10.8861 281° West  Level Estimated
Wed 03:41:00 PM 53.6314 -11.0871 281° West  Level Estimated
Wed 03:42:00 PM 53.6537 -11.2884 281° West  Level Estimated
Wed 03:43:00 PM 53.6756 -11.4898 281° West  Level Estimated
Wed 03:44:00 PM 53.6972 -11.6915 280° West  Level Estimated
Wed 03:45:00 PM 53.7185 -11.8933 280° West  Level Estimated
Wed 03:46:00 PM 53.7394 -12.0954 280° West  Level Estimated
Wed 03:47:00 PM 53.7600 -12.2977 280° West  Level Estimated
Wed 03:48:00 PM 53.7803 -12.5001 280° West  Level Estimated
Wed 03:49:00 PM 53.8002 -12.7028 280° West  Level Estimated
Wed 03:50:00 PM 53.8197 -12.9056 279° West  Level Estimated
Wed 03:51:00 PM 53.8390 -13.1087 279° West  Level Estimated
Wed 03:52:00 PM 53.8578 -13.3119 279° West  Level Estimated
Wed 03:53:00 PM 53.8764 -13.5153 279° West  Level Estimated
Wed 03:54:00 PM 53.8946 -13.7189 279° West  Level Estimated
Wed 03:55:00 PM 53.9124 -13.9226 279° West  Level Estimated
Wed 03:56:00 PM 53.9300 -14.1266 278° West  Level Estimated
Wed 03:57:00 PM 53.9471 -14.3307 278° West  Level Estimated
Wed 03:58:00 PM 53.9639 -14.5349 278° West  Level Estimated
Wed 03:59:00 PM 53.9804 -14.7394 278° West  Level Estimated
Wed 04:00:00 PM 53.9965 -14.9439 278° West  Level Estimated
Wed 04:01:00 PM 54.0123 -15.1487 278° West  Level Estimated
Wed 04:02:00 PM 54.0277 -15.3536 277° West  Level Estimated
Wed 04:03:00 PM 54.0428 -15.5586 277° West  Level Estimated
Wed 04:04:00 PM 54.0575 -15.7638 277° West  Level Estimated
Wed 04:05:00 PM 54.0719 -15.9692 277° West  Level Estimated
Wed 04:06:00 PM 54.0859 -16.1747 277° West  Level Estimated
Wed 04:07:00 PM 54.0996 -16.3803 277° West  Level Estimated
Wed 04:08:00 PM 54.1129 -16.5860 276° West  Level Estimated
Wed 04:09:00 PM 54.1259 -16.7919 276° West  Level Estimated
Wed 04:10:00 PM 54.1385 -16.9979 276° West  Level Estimated
Wed 04:11:00 PM 54.1508 -17.2041 276° West  Level Estimated
Wed 04:12:00 PM 54.1627 -17.4103 276° West  Level Estimated
Wed 04:13:00 PM 54.1743 -17.6167 276° West  Level Estimated
Wed 04:14:00 PM 54.1855 -17.8232 275° West  Level Estimated
Wed 04:15:00 PM 54.1964 -18.0297 275° West  Level Estimated
Wed 04:16:00 PM 54.2069 -18.2364 275° West  Level Estimated
Wed 04:17:00 PM 54.2170 -18.4432 275° West  Level Estimated
Wed 04:18:00 PM 54.2268 -18.6501 275° West  Level Estimated
Wed 04:19:00 PM 54.2363 -18.8571 275° West  Level Estimated
Wed 04:20:00 PM 54.2453 -19.0642 274° West  Level Estimated
Wed 04:21:00 PM 54.2541 -19.2714 274° West  Level Estimated
Wed 04:22:00 PM 54.2625 -19.4787 274° West  Level Estimated
Wed 04:23:00 PM 54.2705 -19.6860 274° West  Level Estimated
Wed 04:24:00 PM 54.2781 -19.8935 274° West  Level Estimated
Wed 04:25:00 PM 54.2854 -20.1010 274° West  Level Estimated
Wed 04:26:00 PM 54.2924 -20.3085 273° West  Level Estimated
Wed 04:27:00 PM 54.2990 -20.5162 273° West  Level Estimated
Wed 04:28:00 PM 54.3052 -20.7239 273° West  Level Estimated
Wed 04:29:00 PM 54.3111 -20.9317 273° West  Level Estimated
Wed 04:30:00 PM 54.3167 -21.1395 273° West  Level Estimated
Wed 04:31:00 PM 54.3218 -21.3474 273° West  Level Estimated
Wed 04:32:00 PM 54.3266 -21.5553 272° West  Level Estimated
Wed 04:33:00 PM 54.3311 -21.7633 272° West  Level Estimated
Wed 04:34:00 PM 54.3352 -21.9713 272° West  Level Estimated
Wed 04:35:00 PM 54.3389 -22.1794 272° West  Level Estimated
Wed 04:36:00 PM 54.3423 -22.3875 272° West  Level Estimated
Wed 04:37:00 PM 54.3453 -22.5956 272° West  Level Estimated
Wed 04:38:00 PM 54.3480 -22.8038 271° West  Level Estimated
Wed 04:39:00 PM 54.3503 -23.0120 271° West  Level Estimated
Wed 04:40:00 PM 54.3522 -23.2202 271° West  Level Estimated
Wed 04:41:00 PM 54.3538 -23.4284 271° West  Level Estimated
Wed 04:42:00 PM 54.3551 -23.6366 271° West  Level Estimated
Wed 04:43:00 PM 54.3559 -23.8449 270° West  Level Estimated
Wed 04:44:00 PM 54.3565 -24.0532 270° West  Level Estimated
Wed 04:45:00 PM 54.3566 -24.2614 270° West  Level Estimated
Wed 04:46:00 PM 54.3564 -24.4697 270° West  Level Estimated
Wed 04:47:00 PM 54.3559 -24.6779 270° West  Level Estimated
Wed 04:48:00 PM 54.3549 -24.8862 270° West  Level Estimated
Wed 04:49:00 PM 54.3537 -25.0944 269° West  Level Estimated
Wed 04:50:00 PM 54.3520 -25.3026 269° West  Level Estimated
Wed 04:51:00 PM 54.3500 -25.5109 269° West  Level Estimated
Wed 04:52:00 PM 54.3477 -25.7190 269° West  Level Estimated
Wed 04:53:00 PM 54.3450 -25.9272 269° West  Level Estimated
Wed 04:54:00 PM 54.3419 -26.1353 269° West  Level Estimated
Wed 04:55:00 PM 54.3385 -26.3434 268° West  Level Estimated
Wed 04:56:00 PM 54.3347 -26.5515 268° West  Level Estimated
Wed 04:57:00 PM 54.3306 -26.7595 268° West  Level Estimated
Wed 04:58:00 PM 54.3260 -26.9675 268° West  Level Estimated
Wed 04:59:00 PM 54.3212 -27.1754 268° West  Level Estimated
Wed 05:00:00 PM 54.3160 -27.3833 268° West  Level Estimated
Wed 05:01:00 PM 54.3104 -27.5911 267° West  Level Estimated
Wed 05:02:00 PM 54.3045 -27.7989 267° West  Level Estimated
Wed 05:03:00 PM 54.2982 -28.0066 267° West  Level Estimated
Wed 05:04:00 PM 54.2915 -28.2142 267° West  Level Estimated
Wed 05:05:00 PM 54.2845 -28.4218 267° West  Level Estimated
Wed 05:06:00 PM 54.2772 -28.6293 267° West  Level Estimated
Wed 05:07:00 PM 54.2695 -28.8367 266° West  Level Estimated
Wed 05:08:00 PM 54.2614 -29.0440 266° West  Level Estimated
Wed 05:09:00 PM 54.2530 -29.2513 266° West  Level Estimated
Wed 05:10:00 PM 54.2442 -29.4585 266° West  Level Estimated
Wed 05:11:00 PM 54.2351 -29.6656 266° West  Level Estimated
Wed 05:12:00 PM 54.2256 -29.8725 266° West  Level Estimated
Wed 05:13:00 PM 54.2157 -30.0794 265° West  Level Estimated
Wed 05:14:00 PM 54.2055 -30.2862 265° West  Level Estimated
Wed 05:15:00 PM 54.1950 -30.4929 265° West  Level Estimated
Wed 05:16:00 PM 54.1841 -30.6995 265° West  Level Estimated
Wed 05:17:00 PM 54.1728 -30.9060 265° West  Level Estimated
Wed 05:18:00 PM 54.1612 -31.1123 265° West  Level Estimated
Wed 05:19:00 PM 54.1493 -31.3186 264° West  Level Estimated
Wed 05:20:00 PM 54.1369 -31.5247 264° West  Level Estimated
Wed 05:21:00 PM 54.1243 -31.7307 264° West  Level Estimated
Wed 05:22:00 PM 54.1113 -31.9365 264° West  Level Estimated
Wed 05:23:00 PM 54.0979 -32.1423 264° West  Level Estimated
Wed 05:24:00 PM 54.0842 -32.3479 264° West  Level Estimated
Wed 05:25:00 PM 54.0701 -32.5533 263° West  Level Estimated
Wed 05:26:00 PM 54.0557 -32.7587 263° West  Level Estimated
Wed 05:27:00 PM 54.0409 -32.9638 263° West  Level Estimated
Wed 05:28:00 PM 54.0258 -33.1689 263° West  Level Estimated
Wed 05:29:00 PM 54.0103 -33.3737 263° West  Level Estimated
Wed 05:30:00 PM 53.9945 -33.5785 263° West  Level Estimated
Wed 05:31:00 PM 53.9783 -33.7830 262° West  Level Estimated
Wed 05:32:00 PM 53.9618 -33.9874 262° West  Level Estimated
Wed 05:33:00 PM 53.9450 -34.1917 262° West  Level Estimated
Wed 05:34:00 PM 53.9278 -34.3958 262° West  Level Estimated
Wed 05:35:00 PM 53.9102 -34.5997 262° West  Level Estimated
Wed 05:36:00 PM 53.8923 -34.8034 262° West  Level Estimated
Wed 05:37:00 PM 53.8741 -35.0070 261° West  Level Estimated
Wed 05:38:00 PM 53.8555 -35.2103 261° West  Level Estimated
Wed 05:39:00 PM 53.8366 -35.4135 261° West  Level Estimated
Wed 05:40:00 PM 53.8173 -35.6166 261° West  Level Estimated
Wed 05:41:00 PM 53.7977 -35.8194 261° West  Level Estimated
Wed 05:42:00 PM 53.7777 -36.0220 261° West  Level Estimated
Wed 05:43:00 PM 53.7574 -36.2244 260° West  Level Estimated
Wed 05:44:00 PM 53.7368 -36.4267 260° West  Level Estimated
Wed 05:45:00 PM 53.7158 -36.6287 260° West  Level Estimated
Wed 05:46:00 PM 53.6945 -36.8306 260° West  Level Estimated
Wed 05:47:00 PM 53.6729 -37.0322 260° West  Level Estimated
Wed 05:48:00 PM 53.6509 -37.2336 260° West  Level Estimated
Wed 05:49:00 PM 53.6285 -37.4348 259° West  Level Estimated
Wed 05:50:00 PM 53.6059 -37.6358 259° West  Level Estimated
Wed 05:51:00 PM 53.5829 -37.8366 259° West  Level Estimated
Wed 05:52:00 PM 53.5595 -38.0372 259° West  Level Estimated
Wed 05:53:00 PM 53.5359 -38.2375 259° West  Level Estimated
Wed 05:54:00 PM 53.5118 -38.4376 259° West  Level Estimated
Wed 05:55:00 PM 53.4875 -38.6375 259° West  Level Estimated
Wed 05:56:00 PM 53.4628 -38.8371 258° West  Level Estimated
Wed 05:57:00 PM 53.4378 -39.0366 258° West  Level Estimated
Wed 05:58:00 PM 53.4125 -39.2357 258° West  Level Estimated
Wed 05:59:00 PM 53.3868 -39.4347 258° West  Level Estimated
Wed 06:00:00 PM 53.3608 -39.6334 258° West  Level Estimated
Wed 06:01:00 PM 53.3345 -39.8318 258° West  Level Estimated
Wed 06:02:00 PM 53.3078 -40.0300 257° West  Level Estimated
Wed 06:03:00 PM 53.2808 -40.2280 257° West  Level Estimated
Wed 06:04:00 PM 53.2535 -40.4257 257° West  Level Estimated
Wed 06:05:00 PM 53.2259 -40.6232 257° West  Level Estimated
Wed 06:06:00 PM 53.1979 -40.8204 257° West  Level Estimated
Wed 06:07:00 PM 53.1696 -41.0173 257° West  Level Estimated
Wed 06:08:00 PM 53.1410 -41.2140 256° West  Level Estimated
Wed 06:09:00 PM 53.1120 -41.4104 256° West  Level Estimated
Wed 06:10:00 PM 53.0828 -41.6066 256° West  Level Estimated
Wed 06:11:00 PM 53.0532 -41.8024 256° West  Level Estimated
Wed 06:12:00 PM 53.0233 -41.9981 256° West  Level Estimated
Wed 06:13:00 PM 52.9930 -42.1934 256° West  Level Estimated
Wed 06:14:00 PM 52.9625 -42.3885 255° West  Level Estimated
Wed 06:15:00 PM 52.9316 -42.5833 255° West  Level Estimated
Wed 06:16:00 PM 52.9005 -42.7778 255° West  Level Estimated
Wed 06:17:00 PM 52.8689 -42.9720 255° West  Level Estimated
Wed 06:18:00 PM 52.8371 -43.1660 255° West  Level Estimated
Wed 06:19:00 PM 52.8050 -43.3596 255° West  Level Estimated
Wed 06:20:00 PM 52.7725 -43.5530 255° West  Level Estimated
Wed 06:21:00 PM 52.7398 -43.7461 254° West  Level Estimated
Wed 06:22:00 PM 52.7067 -43.9389 254° West  Level Estimated
Wed 06:23:00 PM 52.6733 -44.1314 254° West  Level Estimated
Wed 06:24:00 PM 52.6396 -44.3236 254° West  Level Estimated
Wed 06:25:00 PM 52.6056 -44.5155 254° West  Level Estimated
Wed 06:26:00 PM 52.5713 -44.7071 254° West  Level Estimated
Wed 06:27:00 PM 52.5367 -44.8984 253° West  Level Estimated
Wed 06:28:00 PM 52.5017 -45.0894 253° West  Level Estimated
Wed 06:29:00 PM 52.4665 -45.2801 253° West  Level Estimated
Wed 06:30:00 PM 52.4309 -45.4705 253° West  Level Estimated
Wed 06:31:00 PM 52.3951 -45.6606 253° West  Level Estimated
Wed 06:32:00 PM 52.3589 -45.8503 253° West  Level Estimated
Wed 06:33:00 PM 52.3225 -46.0398 253° West  Level Estimated
Wed 06:34:00 PM 52.2857 -46.2290 252° West  Level Estimated
Wed 06:35:00 PM 52.2486 -46.4178 252° West  Level Estimated
Wed 06:36:00 PM 52.2113 -46.6063 252° West  Level Estimated
Wed 06:37:00 PM 52.1736 -46.7945 252° West  Level Estimated
Wed 06:38:00 PM 52.1356 -46.9824 252° West  Level Estimated
Wed 06:39:00 PM 52.0974 -47.1699 252° West  Level Estimated
Wed 06:40:00 PM 52.0588 -47.3572 252° West  Level Estimated
Wed 06:41:00 PM 52.0200 -47.5441 251° West  Level Estimated
Wed 06:42:00 PM 51.9808 -47.7307 251° West  Level Estimated
Wed 06:43:00 PM 51.9413 -47.9170 251° West  Level Estimated
Wed 06:44:00 PM 51.9016 -48.1029 251° West  Level Estimated
Wed 06:45:00 PM 51.8616 -48.2885 251° West  Level Estimated
Wed 06:46:00 PM 51.8213 -48.4738 251° West  Level Estimated
Wed 06:47:00 PM 51.7807 -48.6587 251° West  Level Estimated
Wed 06:48:00 PM 51.7397 -48.8433 250° West  Level Estimated
Wed 06:49:00 PM 51.6986 -49.0276 250° West  Level Estimated
Wed 06:50:00 PM 51.6571 -49.2115 250° West  Level Estimated
Wed 06:51:00 PM 51.6153 -49.3951 250° West  Level Estimated
Wed 06:52:00 PM 51.5733 -49.5783 250° West  Level Estimated
Wed 06:53:00 PM 51.5309 -49.7613 250° West  Level Estimated
Wed 06:54:00 PM 51.4883 -49.9438 250° West  Level Estimated
Wed 06:55:00 PM 51.4454 -50.1261 249° West  Level Estimated
Wed 06:56:00 PM 51.4022 -50.3080 249° West  Level Estimated
Wed 06:57:00 PM 51.3587 -50.4895 249° West  Level Estimated
Wed 06:58:00 PM 51.3150 -50.6707 249° West  Level Estimated
Wed 06:59:00 PM 51.2710 -50.8516 249° West  Level Estimated
Wed 07:00:00 PM 51.2267 -51.0321 249° West  Level Estimated
Wed 07:01:00 PM 51.1821 -51.2122 249° West  Level Estimated
Wed 07:02:00 PM 51.1372 -51.3920 248° West  Level Estimated
Wed 07:03:00 PM 51.0921 -51.5715 248° West  Level Estimated
Wed 07:04:00 PM 51.0467 -51.7506 248° West  Level Estimated
Wed 07:05:00 PM 51.0010 -51.9294 248° West  Level Estimated
Wed 07:06:00 PM 50.9551 -52.1078 248° West  Level Estimated
Wed 07:07:00 PM 50.9088 -52.2858 248° West  Level Estimated
Wed 07:08:00 PM 50.8623 -52.4635 248° West  Level Estimated
Wed 07:09:00 PM 50.8156 -52.6409 247° West  Level Estimated
Wed 07:10:00 PM 50.7686 -52.8178 247° West  Level Estimated
Wed 07:11:00 PM 50.7212 -52.9945 247° West  Level Estimated
Wed 07:12:00 PM 50.6737 -53.1707 247° West  Level Estimated
Wed 07:13:00 PM 50.6259 -53.3466 247° West  Level Estimated
Wed 07:14:00 PM 50.5778 -53.5222 247° West  Level Estimated
Wed 07:15:00 PM 50.5294 -53.6974 247° West  Level Estimated
Wed 07:16:00 PM 50.4808 -53.8722 246° West  Level Estimated
Wed 07:17:00 PM 50.4319 -54.0467 246° West  Level Estimated
Wed 07:18:00 PM 50.3828 -54.2208 246° West  Level Estimated
Wed 07:19:00 PM 50.3334 -54.3946 246° West  Level Estimated
Wed 07:20:00 PM 50.2837 -54.5680 246° West  Level Estimated
Wed 07:21:00 PM 50.2338 -54.7410 246° West  Level Estimated
Wed 07:22:00 PM 50.1836 -54.9137 246° West  Level Estimated
Wed 07:23:00 PM 50.1332 -55.0860 246° West  Level Estimated
Wed 07:24:00 PM 50.0825 -55.2579 245° Southwest  Level Estimated
Wed 07:25:00 PM 50.0316 -55.4295 245° Southwest  Level Estimated
Wed 07:26:00 PM 49.9804 -55.6007 245° Southwest  Level Estimated
Wed 07:27:00 PM 49.9289 -55.7715 245° Southwest  Level Estimated
Wed 07:28:00 PM 49.8772 -55.9420 245° Southwest  Level Estimated
Wed 07:29:00 PM 49.8253 -56.1121 245° Southwest  Level Estimated
Wed 07:30:00 PM 49.7731 -56.2819 245° Southwest  Level Estimated
Wed 07:31:00 PM 49.7207 -56.4513 244° Southwest  Level Estimated
Wed 07:32:00 PM 49.6680 -56.6203 244° Southwest  Level Estimated
Wed 07:33:00 PM 49.6151 -56.7889 244° Southwest  Level Estimated
Wed 07:34:00 PM 49.5619 -56.9572 244° Southwest  Level Estimated
Wed 07:35:00 PM 49.5085 -57.1251 244° Southwest  Level Estimated
Wed 07:36:00 PM 49.4548 -57.2927 244° Southwest  Level Estimated
Wed 07:37:00 PM 49.4009 -57.4599 244° Southwest  Level Estimated
Wed 07:38:00 PM 49.3468 -57.6267 244° Southwest  Level Estimated
Wed 07:39:00 PM 49.2924 -57.7931 243° Southwest  Level Estimated
Wed 07:40:00 PM 49.2378 -57.9592 243° Southwest  Level Estimated
Wed 07:41:00 PM 49.1829 -58.1249 243° Southwest  Level Estimated
Wed 07:42:00 PM 49.1278 -58.2902 243° Southwest  Level Estimated
Wed 07:43:00 PM 49.0725 -58.4552 243° Southwest  Level Estimated
Wed 07:44:00 PM 49.0169 -58.6198 243° Southwest  Level Estimated
Wed 07:45:00 PM 48.9611 -58.7841 243° Southwest  Level Estimated
Wed 07:46:00 PM 48.9051 -58.9479 243° Southwest  Level Estimated
Wed 07:47:00 PM 48.8488 -59.1115 242° Southwest  Level Estimated
Wed 07:48:00 PM 48.7923 -59.2746 242° Southwest  Level Estimated
Wed 07:49:00 PM 48.7356 -59.4374 242° Southwest  Level Estimated
Wed 07:50:00 PM 48.6787 -59.5998 242° Southwest  Level Estimated
Wed 07:51:00 PM 48.6215 -59.7618 242° Southwest  Level Estimated
Wed 07:52:00 PM 48.5641 -59.9235 242° Southwest  Level Estimated
Wed 07:53:00 PM 48.5065 -60.0848 242° Southwest  Level Estimated
Wed 07:54:00 PM 48.4486 -60.2457 242° Southwest  Level Estimated
Wed 07:55:00 PM 48.3905 -60.4063 241° Southwest  Level Estimated
Wed 07:56:00 PM 48.3322 -60.5665 241° Southwest  Level Estimated
Wed 07:57:00 PM 48.2737 -60.7263 241° Southwest  Level Estimated
Wed 07:58:00 PM 48.2150 -60.8858 241° Southwest  Level Estimated
Wed 07:59:00 PM 48.1560 -61.0449 241° Southwest  Level Estimated
Wed 08:00:00 PM 48.0968 -61.2036 241° Southwest  Level Estimated
Wed 08:01:00 PM 48.0374 -61.3620 241° Southwest  Level Estimated
Wed 08:02:00 PM 47.9778 -61.5200 241° Southwest  Level Estimated
Wed 08:03:00 PM 47.9179 -61.6776 241° Southwest  Level Estimated
Wed 08:04:00 PM 47.8579 -61.8349 240° Southwest  Level Estimated
Wed 08:05:00 PM 47.7976 -61.9918 240° Southwest  Level Estimated
Wed 08:06:00 PM 47.7371 -62.1483 240° Southwest  Level Estimated
Wed 08:07:00 PM 47.6764 -62.3045 240° Southwest  Level Estimated
Wed 08:08:00 PM 47.6156 -62.4603 240° Southwest  Level Estimated
Wed 08:09:00 PM 47.5544 -62.6158 240° Southwest  Level Estimated
Wed 08:10:00 PM 47.4931 -62.7709 240° Southwest  Level Estimated
Wed 08:11:00 PM 47.4316 -62.9256 240° Southwest  Level Estimated
Wed 08:12:00 PM 47.3699 -63.0800 239° Southwest  Level Estimated
Wed 08:13:00 PM 47.3079 -63.2340 239° Southwest  Level Estimated
Wed 08:14:00 PM 47.2458 -63.3876 239° Southwest  Level Estimated
Wed 08:15:00 PM 47.1834 -63.5409 239° Southwest  Level Estimated
Wed 08:16:00 PM 47.1208 -63.6938 239° Southwest  Level Estimated
Wed 08:17:00 PM 47.0581 -63.8464 239° Southwest  Level Estimated
Wed 08:18:00 PM 46.9951 -63.9986 239° Southwest  Level Estimated
Wed 08:19:00 PM 46.9319 -64.1504 239° Southwest  Level Estimated
Wed 08:20:00 PM 46.8686 -64.3019 239° Southwest  Level Estimated
Wed 08:21:00 PM 46.8050 -64.4530 238° Southwest  Level Estimated
Wed 08:22:00 PM 46.7412 -64.6038 238° Southwest  Level Estimated
Wed 08:23:00 PM 46.6773 -64.7542 238° Southwest  Level Estimated
Wed 08:24:00 PM 46.6131 -64.9043 238° Southwest  Level Estimated
Wed 08:25:00 PM 46.5488 -65.0540 238° Southwest  Level Estimated
Wed 08:26:00 PM 46.4842 -65.2033 238° Southwest  Level Estimated
Wed 08:27:00 PM 46.4195 -65.3523 238° Southwest  Level Estimated
Wed 08:28:00 PM 46.3545 -65.5009 238° Southwest  Level Estimated
Wed 08:29:00 PM 46.2894 -65.6492 238° Southwest  Level Estimated
Wed 08:30:00 PM 46.2241 -65.7972 237° Southwest  Level Estimated
Wed 08:31:00 PM 46.1586 -65.9447 237° Southwest  Level Estimated
Wed 08:32:00 PM 46.0929 -66.0920 237° Southwest  Level Estimated
Wed 08:33:00 PM 46.0270 -66.2389 237° Southwest  Level Estimated
Wed 08:34:00 PM 45.9609 -66.3854 237° Southwest  Level Estimated
Wed 08:35:00 PM 45.8946 -66.5316 237° Southwest  Level Estimated
Wed 08:36:00 PM 45.8282 -66.6774 237° Southwest  Level Estimated
Wed 08:37:00 PM 45.7616 -66.8229 237° Southwest  Level Estimated
Wed 08:38:00 PM 45.6948 -66.9680 237° Southwest  Level Estimated
Wed 08:39:00 PM 45.6278 -67.1128 237° Southwest  Level Estimated
Wed 08:40:00 PM 45.5606 -67.2572 236° Southwest  Level Estimated
Wed 08:41:00 PM 45.4932 -67.4013 236° Southwest  Level Estimated
Wed 08:42:00 PM 45.4257 -67.5451 236° Southwest  Level Estimated
Wed 08:43:00 PM 45.3579 -67.6885 236° Southwest  Level Estimated
Wed 08:44:00 PM 45.2900 -67.8316 236° Southwest  Level Estimated
Wed 08:45:00 PM 45.2220 -67.9743 236° Southwest  Level Estimated
Wed 08:46:00 PM 45.1537 -68.1167 236° Southwest  Level Estimated
Wed 08:47:00 PM 45.0853 -68.2587 236° Southwest  Level Estimated
Wed 08:48:00 PM 45.0166 -68.4004 236° Southwest  Level Estimated
Wed 08:49:00 PM 44.9478 -68.5417 236° Southwest  Level Estimated
Wed 08:50:00 PM 44.8789 -68.6828 235° Southwest  Level Estimated
Wed 08:51:00 PM 44.8097 -68.8234 235° Southwest  Level Estimated
Wed 08:52:00 PM 44.8074 -68.8281 235° Southwest  Level Estimated
Wed 08:53:00 PM 44.8074 -68.8281 10° North  Level Estimated
Wed 08:54:00 PM 44.8074 -68.8281 10° North  Level Estimated
Wed 08:55:00 PM 44.8074 -68.8281 10° North  Level Estimated
Wed 08:56:00 PM 44.8074 -68.8281 10° North  Level Estimated
Wed 08:57:00 PM 44.8074 -68.8281 10° North  Level Estimated
Wed 08:58:00 PM 44.8074 -68.8281 10° North  Level Estimated
Wed 08:59:00 PM 44.8074 -68.8281 10° North  Level Estimated
Wed 09:00:00 PM 44.8074 -68.8281 10° North  Level Estimated
Wed 09:01:00 PM 44.8074 -68.8281 10° North  Level Estimated
Wed 09:02:00 PM 44.8074 -68.8281 10° North  Level Estimated
Wed 09:03:00 PM 44.8074 -68.8281 10° North  Level Estimated
Wed 09:04:00 PM 44.8074 -68.8281 10° North  Level Estimated
Wed 09:05:00 PM 44.8074 -68.8281 10° North  Level Estimated
Wed 09:06:00 PM 44.8074 -68.8281 10° North  Level Estimated
Wed 09:07:00 PM 44.8074 -68.8281 10° North  Level Estimated

Login

Don't have an account? Register now (free) for customized features, flight alerts, and more!